sensor_id;sensor_type;location;lat;lon;timestamp;P1;durP1;ratioP1;P2;durP2;ratioP2
8139;SDS011;4111;50.972;7.072;2022-12-10T00:02:21;26.23;;;19.43;;
8139;SDS011;4111;50.972;7.072;2022-12-10T00:04:48;28.57;;;20.47;;
8139;SDS011;4111;50.972;7.072;2022-12-10T00:07:14;26.63;;;19.40;;
8139;SDS011;4111;50.972;7.072;2022-12-10T00:09:41;27.33;;;19.37;;
8139;SDS011;4111;50.972;7.072;2022-12-10T00:12:07;30.93;;;20.43;;
8139;SDS011;4111;50.972;7.072;2022-12-10T00:14:34;29.77;;;20.27;;
8139;SDS011;4111;50.972;7.072;2022-12-10T00:17:00;25.13;;;19.23;;
8139;SDS011;4111;50.972;7.072;2022-12-10T00:19:26;26.80;;;18.57;;
8139;SDS011;4111;50.972;7.072;2022-12-10T00:21:53;29.83;;;20.00;;
8139;SDS011;4111;50.972;7.072;2022-12-10T00:24:19;28.23;;;19.47;;
8139;SDS011;4111;50.972;7.072;2022-12-10T00:26:46;29.87;;;19.33;;
8139;SDS011;4111;50.972;7.072;2022-12-10T00:29:12;30.03;;;20.37;;
8139;SDS011;4111;50.972;7.072;2022-12-10T00:31:39;23.83;;;19.10;;
8139;SDS011;4111;50.972;7.072;2022-12-10T00:34:07;25.67;;;18.33;;
8139;SDS011;4111;50.972;7.072;2022-12-10T00:36:39;25.37;;;18.70;;
8139;SDS011;4111;50.972;7.072;2022-12-10T00:39:08;26.23;;;17.90;;
8139;SDS011;4111;50.972;7.072;2022-12-10T00:41:37;28.30;;;19.20;;
8139;SDS011;4111;50.972;7.072;2022-12-10T00:44:04;28.73;;;19.50;;
8139;SDS011;4111;50.972;7.072;2022-12-10T00:46:31;28.10;;;19.97;;
8139;SDS011;4111;50.972;7.072;2022-12-10T00:48:58;27.83;;;19.33;;
8139;SDS011;4111;50.972;7.072;2022-12-10T00:51:25;26.47;;;18.43;;
8139;SDS011;4111;50.972;7.072;2022-12-10T00:53:53;26.03;;;18.77;;
8139;SDS011;4111;50.972;7.072;2022-12-10T00:56:22;28.63;;;18.97;;
8139;SDS011;4111;50.972;7.072;2022-12-10T00:58:50;26.67;;;18.10;;
8139;SDS011;4111;50.972;7.072;2022-12-10T01:03:47;28.23;;;19.87;;
8139;SDS011;4111;50.972;7.072;2022-12-10T01:06:19;26.93;;;18.40;;
8139;SDS011;4111;50.972;7.072;2022-12-10T01:08:46;26.63;;;17.33;;
8139;SDS011;4111;50.972;7.072;2022-12-10T01:11:13;24.70;;;17.30;;
8139;SDS011;4111;50.972;7.072;2022-12-10T01:13:42;24.80;;;16.97;;
8139;SDS011;4111;50.972;7.072;2022-12-10T01:16:10;24.63;;;17.83;;
8139;SDS011;4111;50.972;7.072;2022-12-10T01:18:39;27.40;;;18.07;;
8139;SDS011;4111;50.972;7.072;2022-12-10T01:21:07;24.67;;;18.00;;
8139;SDS011;4111;50.972;7.072;2022-12-10T01:23:39;23.00;;;16.60;;
8139;SDS011;4111;50.972;7.072;2022-12-10T01:26:12;24.47;;;17.37;;
8139;SDS011;4111;50.972;7.072;2022-12-10T01:28:41;24.53;;;16.27;;
8139;SDS011;4111;50.972;7.072;2022-12-10T01:31:10;23.80;;;16.50;;
8139;SDS011;4111;50.972;7.072;2022-12-10T01:34:03;25.63;;;16.67;;
8139;SDS011;4111;50.972;7.072;2022-12-10T01:36:32;24.27;;;16.77;;
8139;SDS011;4111;50.972;7.072;2022-12-10T01:39:04;22.40;;;16.27;;
8139;SDS011;4111;50.972;7.072;2022-12-10T01:41:34;22.67;;;17.03;;
8139;SDS011;4111;50.972;7.072;2022-12-10T01:46:41;23.37;;;16.17;;
8139;SDS011;4111;50.972;7.072;2022-12-10T01:49:10;23.63;;;16.13;;
8139;SDS011;4111;50.972;7.072;2022-12-10T01:51:40;24.73;;;17.07;;
8139;SDS011;4111;50.972;7.072;2022-12-10T01:54:10;26.43;;;17.20;;
8139;SDS011;4111;50.972;7.072;2022-12-10T01:56:40;24.63;;;16.27;;
8139;SDS011;4111;50.972;7.072;2022-12-10T01:59:10;23.80;;;16.07;;
8139;SDS011;4111;50.972;7.072;2022-12-10T02:07:37;22.97;;;16.60;;
8139;SDS011;4111;50.972;7.072;2022-12-10T02:10:17;25.37;;;16.17;;
8139;SDS011;4111;50.972;7.072;2022-12-10T02:15:39;23.77;;;16.40;;
8139;SDS011;4111;50.972;7.072;2022-12-10T02:18:18;22.57;;;16.77;;
8139;SDS011;4111;50.972;7.072;2022-12-10T02:20:52;24.83;;;17.37;;
8139;SDS011;4111;50.972;7.072;2022-12-10T02:23:24;27.23;;;17.33;;
8139;SDS011;4111;50.972;7.072;2022-12-10T02:25:59;26.27;;;17.40;;
8139;SDS011;4111;50.972;7.072;2022-12-10T02:28:33;30.53;;;18.33;;
8139;SDS011;4111;50.972;7.072;2022-12-10T02:31:28;24.07;;;17.63;;
8139;SDS011;4111;50.972;7.072;2022-12-10T02:33:57;28.20;;;16.30;;
8139;SDS011;4111;50.972;7.072;2022-12-10T02:36:27;28.63;;;18.27;;
8139;SDS011;4111;50.972;7.072;2022-12-10T02:38:55;28.37;;;17.17;;
8139;SDS011;4111;50.972;7.072;2022-12-10T02:41:28;26.77;;;17.67;;
8139;SDS011;4111;50.972;7.072;2022-12-10T02:43:59;24.73;;;16.37;;
8139;SDS011;4111;50.972;7.072;2022-12-10T02:46:32;24.07;;;16.83;;
8139;SDS011;4111;50.972;7.072;2022-12-10T02:49:00;26.47;;;17.60;;
8139;SDS011;4111;50.972;7.072;2022-12-10T02:51:30;26.10;;;17.40;;
8139;SDS011;4111;50.972;7.072;2022-12-10T02:54:00;26.67;;;17.70;;
8139;SDS011;4111;50.972;7.072;2022-12-10T02:56:30;29.37;;;18.47;;
8139;SDS011;4111;50.972;7.072;2022-12-10T03:01:38;27.20;;;17.47;;
8139;SDS011;4111;50.972;7.072;2022-12-10T03:04:22;28.17;;;18.10;;
8139;SDS011;4111;50.972;7.072;2022-12-10T03:07:02;27.80;;;19.40;;
8139;SDS011;4111;50.972;7.072;2022-12-10T03:09:40;31.97;;;17.77;;
8139;SDS011;4111;50.972;7.072;2022-12-10T03:12:17;29.87;;;18.20;;
8139;SDS011;4111;50.972;7.072;2022-12-10T03:14:48;29.00;;;18.87;;
8139;SDS011;4111;50.972;7.072;2022-12-10T03:17:14;28.07;;;18.83;;
8139;SDS011;4111;50.972;7.072;2022-12-10T03:19:42;32.03;;;20.57;;
8139;SDS011;4111;50.972;7.072;2022-12-10T03:22:14;33.03;;;19.27;;
8139;SDS011;4111;50.972;7.072;2022-12-10T03:24:44;29.80;;;18.87;;
8139;SDS011;4111;50.972;7.072;2022-12-10T03:27:11;33.80;;;21.23;;
8139;SDS011;4111;50.972;7.072;2022-12-10T03:29:41;33.37;;;20.13;;
8139;SDS011;4111;50.972;7.072;2022-12-10T03:32:12;32.20;;;19.70;;
8139;SDS011;4111;50.972;7.072;2022-12-10T03:34:40;30.87;;;19.47;;
8139;SDS011;4111;50.972;7.072;2022-12-10T03:37:09;35.00;;;20.03;;
8139;SDS011;4111;50.972;7.072;2022-12-10T03:39:37;28.47;;;18.63;;
8139;SDS011;4111;50.972;7.072;2022-12-10T03:42:04;34.43;;;20.33;;
8139;SDS011;4111;50.972;7.072;2022-12-10T03:44:34;31.63;;;19.73;;
8139;SDS011;4111;50.972;7.072;2022-12-10T03:47:03;31.43;;;19.23;;
8139;SDS011;4111;50.972;7.072;2022-12-10T03:49:32;30.33;;;19.00;;
8139;SDS011;4111;50.972;7.072;2022-12-10T03:51:58;33.47;;;21.00;;
8139;SDS011;4111;50.972;7.072;2022-12-10T03:54:24;30.77;;;19.43;;
8139;SDS011;4111;50.972;7.072;2022-12-10T03:56:51;30.63;;;18.80;;
8139;SDS011;4111;50.972;7.072;2022-12-10T03:59:17;32.90;;;21.60;;
8139;SDS011;4111;50.972;7.072;2022-12-10T04:01:44;31.57;;;19.60;;
8139;SDS011;4111;50.972;7.072;2022-12-10T04:04:11;33.37;;;20.50;;
8139;SDS011;4111;50.972;7.072;2022-12-10T04:06:38;31.80;;;20.67;;
8139;SDS011;4111;50.972;7.072;2022-12-10T04:09:05;32.80;;;20.37;;
8139;SDS011;4111;50.972;7.072;2022-12-10T04:11:32;35.07;;;22.73;;
8139;SDS011;4111;50.972;7.072;2022-12-10T04:13:58;34.30;;;21.40;;
8139;SDS011;4111;50.972;7.072;2022-12-10T04:16:43;38.60;;;21.03;;
8139;SDS011;4111;50.972;7.072;2022-12-10T04:19:11;38.73;;;21.63;;
8139;SDS011;4111;50.972;7.072;2022-12-10T04:21:39;33.87;;;19.90;;
8139;SDS011;4111;50.972;7.072;2022-12-10T04:24:26;36.97;;;21.23;;
8139;SDS011;4111;50.972;7.072;2022-12-10T04:27:16;36.33;;;21.03;;
8139;SDS011;4111;50.972;7.072;2022-12-10T04:29:45;34.63;;;21.20;;
8139;SDS011;4111;50.972;7.072;2022-12-10T04:32:12;36.23;;;20.90;;
8139;SDS011;4111;50.972;7.072;2022-12-10T04:34:38;34.97;;;20.60;;
8139;SDS011;4111;50.972;7.072;2022-12-10T04:37:05;31.40;;;20.83;;
8139;SDS011;4111;50.972;7.072;2022-12-10T04:39:31;34.87;;;20.70;;
8139;SDS011;4111;50.972;7.072;2022-12-10T04:41:59;36.63;;;22.63;;
8139;SDS011;4111;50.972;7.072;2022-12-10T04:44:26;32.87;;;21.23;;
8139;SDS011;4111;50.972;7.072;2022-12-10T04:46:52;34.70;;;21.67;;
8139;SDS011;4111;50.972;7.072;2022-12-10T04:49:19;34.47;;;21.50;;
8139;SDS011;4111;50.972;7.072;2022-12-10T04:51:45;34.13;;;21.70;;
8139;SDS011;4111;50.972;7.072;2022-12-10T04:54:12;34.80;;;21.13;;
8139;SDS011;4111;50.972;7.072;2022-12-10T04:56:39;39.00;;;22.83;;
8139;SDS011;4111;50.972;7.072;2022-12-10T04:59:06;38.27;;;20.93;;
8139;SDS011;4111;50.972;7.072;2022-12-10T05:01:33;35.87;;;22.27;;
8139;SDS011;4111;50.972;7.072;2022-12-10T05:04:00;38.57;;;22.63;;
8139;SDS011;4111;50.972;7.072;2022-12-10T05:06:28;43.20;;;24.07;;
8139;SDS011;4111;50.972;7.072;2022-12-10T05:08:55;37.33;;;23.10;;
8139;SDS011;4111;50.972;7.072;2022-12-10T05:11:23;36.93;;;21.90;;
8139;SDS011;4111;50.972;7.072;2022-12-10T05:13:52;36.20;;;21.07;;
8139;SDS011;4111;50.972;7.072;2022-12-10T05:16:20;36.87;;;22.07;;
8139;SDS011;4111;50.972;7.072;2022-12-10T05:18:48;37.03;;;21.97;;
8139;SDS011;4111;50.972;7.072;2022-12-10T05:21:15;37.33;;;23.07;;
8139;SDS011;4111;50.972;7.072;2022-12-10T05:23:45;39.77;;;22.27;;
8139;SDS011;4111;50.972;7.072;2022-12-10T05:26:15;38.73;;;23.23;;
8139;SDS011;4111;50.972;7.072;2022-12-10T05:28:47;34.13;;;21.27;;
8139;SDS011;4111;50.972;7.072;2022-12-10T05:31:16;37.07;;;21.57;;
8139;SDS011;4111;50.972;7.072;2022-12-10T05:33:44;39.90;;;22.97;;
8139;SDS011;4111;50.972;7.072;2022-12-10T05:36:13;35.77;;;22.07;;
8139;SDS011;4111;50.972;7.072;2022-12-10T05:38:40;36.73;;;22.30;;
8139;SDS011;4111;50.972;7.072;2022-12-10T05:41:11;36.43;;;21.67;;
8139;SDS011;4111;50.972;7.072;2022-12-10T05:43:40;34.47;;;21.10;;
8139;SDS011;4111;50.972;7.072;2022-12-10T05:46:14;41.53;;;25.37;;
8139;SDS011;4111;50.972;7.072;2022-12-10T05:48:45;37.97;;;22.33;;
8139;SDS011;4111;50.972;7.072;2022-12-10T05:51:12;35.57;;;22.57;;
8139;SDS011;4111;50.972;7.072;2022-12-10T05:53:41;35.50;;;21.60;;
8139;SDS011;4111;50.972;7.072;2022-12-10T05:56:09;32.17;;;21.67;;
8139;SDS011;4111;50.972;7.072;2022-12-10T05:58:38;40.47;;;22.33;;
8139;SDS011;4111;50.972;7.072;2022-12-10T06:01:06;33.10;;;21.23;;
8139;SDS011;4111;50.972;7.072;2022-12-10T06:03:34;36.97;;;22.50;;
8139;SDS011;4111;50.972;7.072;2022-12-10T06:06:01;35.77;;;21.67;;
8139;SDS011;4111;50.972;7.072;2022-12-10T06:08:27;40.50;;;22.23;;
8139;SDS011;4111;50.972;7.072;2022-12-10T06:10:53;38.87;;;21.80;;
8139;SDS011;4111;50.972;7.072;2022-12-10T06:13:20;36.27;;;21.67;;
8139;SDS011;4111;50.972;7.072;2022-12-10T06:15:46;36.90;;;21.97;;
8139;SDS011;4111;50.972;7.072;2022-12-10T06:18:13;34.97;;;21.40;;
8139;SDS011;4111;50.972;7.072;2022-12-10T06:20:39;39.43;;;23.33;;
8139;SDS011;4111;50.972;7.072;2022-12-10T06:23:12;36.50;;;21.30;;
8139;SDS011;4111;50.972;7.072;2022-12-10T06:25:39;34.57;;;20.93;;
8139;SDS011;4111;50.972;7.072;2022-12-10T06:28:06;36.00;;;20.77;;
8139;SDS011;4111;50.972;7.072;2022-12-10T06:30:33;33.90;;;20.27;;
8139;SDS011;4111;50.972;7.072;2022-12-10T06:32:59;38.50;;;21.33;;
8139;SDS011;4111;50.972;7.072;2022-12-10T06:35:27;34.13;;;20.50;;
8139;SDS011;4111;50.972;7.072;2022-12-10T06:37:53;34.63;;;21.20;;
8139;SDS011;4111;50.972;7.072;2022-12-10T06:40:20;32.23;;;20.50;;
8139;SDS011;4111;50.972;7.072;2022-12-10T06:42:46;39.57;;;22.70;;
8139;SDS011;4111;50.972;7.072;2022-12-10T06:45:12;36.10;;;20.87;;
8139;SDS011;4111;50.972;7.072;2022-12-10T06:47:39;36.60;;;21.70;;
8139;SDS011;4111;50.972;7.072;2022-12-10T06:50:08;35.93;;;21.67;;
8139;SDS011;4111;50.972;7.072;2022-12-10T06:52:35;33.73;;;22.23;;
8139;SDS011;4111;50.972;7.072;2022-12-10T06:55:02;33.17;;;20.30;;
8139;SDS011;4111;50.972;7.072;2022-12-10T06:57:28;33.70;;;20.70;;
8139;SDS011;4111;50.972;7.072;2022-12-10T06:59:55;33.60;;;20.30;;
8139;SDS011;4111;50.972;7.072;2022-12-10T07:02:21;34.93;;;22.17;;
8139;SDS011;4111;50.972;7.072;2022-12-10T07:04:48;42.40;;;24.80;;
8139;SDS011;4111;50.972;7.072;2022-12-10T07:07:14;38.90;;;23.33;;
8139;SDS011;4111;50.972;7.072;2022-12-10T07:09:41;40.80;;;22.83;;
8139;SDS011;4111;50.972;7.072;2022-12-10T07:12:07;38.63;;;23.67;;
8139;SDS011;4111;50.972;7.072;2022-12-10T07:14:33;34.63;;;22.70;;
8139;SDS011;4111;50.972;7.072;2022-12-10T07:17:00;34.57;;;22.03;;
8139;SDS011;4111;50.972;7.072;2022-12-10T07:19:28;34.43;;;19.40;;
8139;SDS011;4111;50.972;7.072;2022-12-10T07:21:54;34.30;;;21.27;;
8139;SDS011;4111;50.972;7.072;2022-12-10T07:24:21;37.53;;;22.10;;
8139;SDS011;4111;50.972;7.072;2022-12-10T07:26:47;33.47;;;21.63;;
8139;SDS011;4111;50.972;7.072;2022-12-10T07:29:15;31.27;;;20.47;;
8139;SDS011;4111;50.972;7.072;2022-12-10T07:31:43;32.37;;;19.90;;
8139;SDS011;4111;50.972;7.072;2022-12-10T07:34:10;36.37;;;21.77;;
8139;SDS011;4111;50.972;7.072;2022-12-10T07:36:38;38.40;;;21.90;;
8139;SDS011;4111;50.972;7.072;2022-12-10T07:39:06;29.00;;;19.67;;
8139;SDS011;4111;50.972;7.072;2022-12-10T07:41:34;34.23;;;21.73;;
8139;SDS011;4111;50.972;7.072;2022-12-10T07:44:02;35.67;;;21.63;;
8139;SDS011;4111;50.972;7.072;2022-12-10T07:46:32;33.53;;;21.20;;
8139;SDS011;4111;50.972;7.072;2022-12-10T07:49:00;31.00;;;21.10;;
8139;SDS011;4111;50.972;7.072;2022-12-10T07:51:27;32.50;;;21.80;;
8139;SDS011;4111;50.972;7.072;2022-12-10T07:53:54;36.10;;;22.97;;
8139;SDS011;4111;50.972;7.072;2022-12-10T07:56:21;32.57;;;19.90;;
8139;SDS011;4111;50.972;7.072;2022-12-10T07:58:49;31.53;;;21.10;;
8139;SDS011;4111;50.972;7.072;2022-12-10T08:01:17;33.77;;;21.43;;
8139;SDS011;4111;50.972;7.072;2022-12-10T08:03:45;32.03;;;20.83;;
8139;SDS011;4111;50.972;7.072;2022-12-10T08:06:13;31.30;;;19.97;;
8139;SDS011;4111;50.972;7.072;2022-12-10T08:08:41;31.50;;;20.93;;
8139;SDS011;4111;50.972;7.072;2022-12-10T08:11:09;29.03;;;19.80;;
8139;SDS011;4111;50.972;7.072;2022-12-10T08:13:36;32.30;;;22.60;;
8139;SDS011;4111;50.972;7.072;2022-12-10T08:16:03;30.77;;;20.33;;
8139;SDS011;4111;50.972;7.072;2022-12-10T08:18:31;31.50;;;21.00;;
8139;SDS011;4111;50.972;7.072;2022-12-10T08:21:03;29.00;;;20.50;;
8139;SDS011;4111;50.972;7.072;2022-12-10T08:23:31;33.37;;;20.23;;
8139;SDS011;4111;50.972;7.072;2022-12-10T08:25:57;28.20;;;20.53;;
8139;SDS011;4111;50.972;7.072;2022-12-10T08:28:23;33.90;;;21.63;;
8139;SDS011;4111;50.972;7.072;2022-12-10T08:30:50;29.20;;;19.70;;
8139;SDS011;4111;50.972;7.072;2022-12-10T08:33:16;31.63;;;20.73;;
8139;SDS011;4111;50.972;7.072;2022-12-10T08:35:43;29.73;;;20.37;;
8139;SDS011;4111;50.972;7.072;2022-12-10T08:38:10;33.27;;;21.23;;
8139;SDS011;4111;50.972;7.072;2022-12-10T08:40:40;32.47;;;21.03;;
8139;SDS011;4111;50.972;7.072;2022-12-10T08:43:07;32.53;;;22.77;;
8139;SDS011;4111;50.972;7.072;2022-12-10T08:45:34;34.10;;;23.23;;
8139;SDS011;4111;50.972;7.072;2022-12-10T08:48:01;37.17;;;25.20;;
8139;SDS011;4111;50.972;7.072;2022-12-10T08:50:28;34.93;;;23.80;;
8139;SDS011;4111;50.972;7.072;2022-12-10T08:52:55;33.37;;;22.13;;
8139;SDS011;4111;50.972;7.072;2022-12-10T08:55:21;32.17;;;21.77;;
8139;SDS011;4111;50.972;7.072;2022-12-10T08:57:47;30.87;;;21.50;;
8139;SDS011;4111;50.972;7.072;2022-12-10T09:00:14;28.90;;;20.33;;
8139;SDS011;4111;50.972;7.072;2022-12-10T09:02:40;32.77;;;20.50;;
8139;SDS011;4111;50.972;7.072;2022-12-10T09:05:07;33.23;;;21.40;;
8139;SDS011;4111;50.972;7.072;2022-12-10T09:07:33;29.63;;;20.50;;
8139;SDS011;4111;50.972;7.072;2022-12-10T09:10:00;30.90;;;21.10;;
8139;SDS011;4111;50.972;7.072;2022-12-10T09:12:26;31.13;;;21.33;;
8139;SDS011;4111;50.972;7.072;2022-12-10T09:14:53;27.10;;;19.23;;
8139;SDS011;4111;50.972;7.072;2022-12-10T09:17:19;31.50;;;20.83;;
8139;SDS011;4111;50.972;7.072;2022-12-10T09:19:45;32.33;;;21.03;;
8139;SDS011;4111;50.972;7.072;2022-12-10T09:22:12;31.53;;;21.33;;
8139;SDS011;4111;50.972;7.072;2022-12-10T09:24:39;33.20;;;20.33;;
8139;SDS011;4111;50.972;7.072;2022-12-10T09:27:05;29.03;;;20.07;;
8139;SDS011;4111;50.972;7.072;2022-12-10T09:29:31;29.60;;;20.50;;
8139;SDS011;4111;50.972;7.072;2022-12-10T09:31:58;31.87;;;21.43;;
8139;SDS011;4111;50.972;7.072;2022-12-10T09:34:24;31.53;;;20.87;;
8139;SDS011;4111;50.972;7.072;2022-12-10T09:36:51;32.27;;;21.43;;
8139;SDS011;4111;50.972;7.072;2022-12-10T09:39:17;31.73;;;19.87;;
8139;SDS011;4111;50.972;7.072;2022-12-10T09:44:37;31.83;;;22.50;;
8139;SDS011;4111;50.972;7.072;2022-12-10T09:47:13;34.23;;;22.30;;
8139;SDS011;4111;50.972;7.072;2022-12-10T09:49:53;30.50;;;21.60;;
8139;SDS011;4111;50.972;7.072;2022-12-10T09:52:29;30.43;;;21.13;;
8139;SDS011;4111;50.972;7.072;2022-12-10T09:55:03;33.03;;;21.83;;
8139;SDS011;4111;50.972;7.072;2022-12-10T09:57:38;30.07;;;22.27;;
8139;SDS011;4111;50.972;7.072;2022-12-10T10:00:29;36.07;;;24.43;;
8139;SDS011;4111;50.972;7.072;2022-12-10T10:03:00;30.87;;;21.60;;
8139;SDS011;4111;50.972;7.072;2022-12-10T10:05:28;33.60;;;22.87;;
8139;SDS011;4111;50.972;7.072;2022-12-10T10:07:58;32.90;;;22.50;;
8139;SDS011;4111;50.972;7.072;2022-12-10T10:15:39;34.00;;;22.67;;
8139;SDS011;4111;50.972;7.072;2022-12-10T10:18:20;31.40;;;22.13;;
8139;SDS011;4111;50.972;7.072;2022-12-10T10:21:06;33.80;;;23.50;;
8139;SDS011;4111;50.972;7.072;2022-12-10T10:23:42;36.10;;;22.83;;
8139;SDS011;4111;50.972;7.072;2022-12-10T10:26:11;34.43;;;22.47;;
8139;SDS011;4111;50.972;7.072;2022-12-10T10:28:37;37.57;;;24.17;;
8139;SDS011;4111;50.972;7.072;2022-12-10T10:31:18;38.93;;;25.70;;
8139;SDS011;4111;50.972;7.072;2022-12-10T10:34:00;36.17;;;24.73;;
8139;SDS011;4111;50.972;7.072;2022-12-10T10:36:32;37.13;;;25.07;;
8139;SDS011;4111;50.972;7.072;2022-12-10T10:41:58;40.90;;;24.53;;
8139;SDS011;4111;50.972;7.072;2022-12-10T10:44:34;43.37;;;27.47;;
8139;SDS011;4111;50.972;7.072;2022-12-10T10:47:02;42.10;;;27.57;;
8139;SDS011;4111;50.972;7.072;2022-12-10T10:49:49;48.00;;;28.20;;
8139;SDS011;4111;50.972;7.072;2022-12-10T10:52:16;50.40;;;28.07;;
8139;SDS011;4111;50.972;7.072;2022-12-10T10:54:44;49.80;;;28.03;;
8139;SDS011;4111;50.972;7.072;2022-12-10T10:57:18;52.77;;;29.03;;
8139;SDS011;4111;50.972;7.072;2022-12-10T10:59:51;54.70;;;30.57;;
8139;SDS011;4111;50.972;7.072;2022-12-10T11:05:22;47.83;;;29.10;;
8139;SDS011;4111;50.972;7.072;2022-12-10T11:08:02;53.50;;;29.20;;
8139;SDS011;4111;50.972;7.072;2022-12-10T11:10:46;48.20;;;29.07;;
8139;SDS011;4111;50.972;7.072;2022-12-10T11:13:27;52.97;;;30.63;;
8139;SDS011;4111;50.972;7.072;2022-12-10T11:18:51;48.40;;;30.47;;
8139;SDS011;4111;50.972;7.072;2022-12-10T11:21:21;60.53;;;32.63;;
8139;SDS011;4111;50.972;7.072;2022-12-10T11:23:49;63.87;;;36.50;;
8139;SDS011;4111;50.972;7.072;2022-12-10T11:38:19;59.00;;;34.47;;
8139;SDS011;4111;50.972;7.072;2022-12-10T11:40:38;73.97;;;38.63;;
8139;SDS011;4111;50.972;7.072;2022-12-10T11:43:34;65.27;;;34.03;;
8139;SDS011;4111;50.972;7.072;2022-12-10T11:49:01;61.73;;;34.43;;
8139;SDS011;4111;50.972;7.072;2022-12-10T11:59:51;57.30;;;33.10;;
8139;SDS011;4111;50.972;7.072;2022-12-10T12:03:05;54.23;;;30.40;;
8139;SDS011;4111;50.972;7.072;2022-12-10T12:08:23;60.73;;;32.67;;
8139;SDS011;4111;50.972;7.072;2022-12-10T12:11:19;49.40;;;29.90;;
8139;SDS011;4111;50.972;7.072;2022-12-10T12:14:00;46.17;;;28.17;;
8139;SDS011;4111;50.972;7.072;2022-12-10T12:16:43;46.87;;;29.50;;
8139;SDS011;4111;50.972;7.072;2022-12-10T12:19:16;44.90;;;29.27;;
8139;SDS011;4111;50.972;7.072;2022-12-10T12:21:46;47.30;;;29.30;;
8139;SDS011;4111;50.972;7.072;2022-12-10T12:24:17;43.13;;;27.53;;
8139;SDS011;4111;50.972;7.072;2022-12-10T12:27:08;34.50;;;23.17;;
8139;SDS011;4111;50.972;7.072;2022-12-10T12:32:55;26.97;;;18.60;;
8139;SDS011;4111;50.972;7.072;2022-12-10T12:41:17;34.83;;;20.43;;
8139;SDS011;4111;50.972;7.072;2022-12-10T12:46:42;24.60;;;17.10;;
8139;SDS011;4111;50.972;7.072;2022-12-10T12:49:27;32.67;;;19.90;;
8139;SDS011;4111;50.972;7.072;2022-12-10T12:52:02;28.70;;;19.23;;
8139;SDS011;4111;50.972;7.072;2022-12-10T12:54:43;33.20;;;22.23;;
8139;SDS011;4111;50.972;7.072;2022-12-10T13:00:11;34.20;;;22.63;;
8139;SDS011;4111;50.972;7.072;2022-12-10T13:02:46;37.03;;;23.53;;
8139;SDS011;4111;50.972;7.072;2022-12-10T13:05:26;40.13;;;22.27;;
8139;SDS011;4111;50.972;7.072;2022-12-10T13:16:32;39.20;;;24.10;;
8139;SDS011;4111;50.972;7.072;2022-12-10T13:37:52;34.47;;;23.10;;
8139;SDS011;4111;50.972;7.072;2022-12-10T13:46:22;38.23;;;23.00;;
8139;SDS011;4111;50.972;7.072;2022-12-10T13:48:52;33.53;;;22.27;;
8139;SDS011;4111;50.972;7.072;2022-12-10T13:51:22;40.80;;;24.23;;
8139;SDS011;4111;50.972;7.072;2022-12-10T13:54:20;36.13;;;24.80;;
8139;SDS011;4111;50.972;7.072;2022-12-10T13:57:00;38.07;;;24.97;;
8139;SDS011;4111;50.972;7.072;2022-12-10T13:59:47;33.67;;;22.83;;
8139;SDS011;4111;50.972;7.072;2022-12-10T14:02:36;35.07;;;23.67;;
8139;SDS011;4111;50.972;7.072;2022-12-10T14:05:17;35.70;;;23.10;;
8139;SDS011;4111;50.972;7.072;2022-12-10T14:08:07;38.03;;;25.30;;
8139;SDS011;4111;50.972;7.072;2022-12-10T14:10:43;41.33;;;24.40;;
8139;SDS011;4111;50.972;7.072;2022-12-10T14:13:11;39.13;;;24.30;;
8139;SDS011;4111;50.972;7.072;2022-12-10T14:15:41;37.17;;;23.50;;
8139;SDS011;4111;50.972;7.072;2022-12-10T14:18:17;37.00;;;23.83;;
8139;SDS011;4111;50.972;7.072;2022-12-10T14:20:45;36.47;;;23.67;;
8139;SDS011;4111;50.972;7.072;2022-12-10T14:23:21;37.10;;;24.83;;
8139;SDS011;4111;50.972;7.072;2022-12-10T14:26:13;39.23;;;24.57;;
8139;SDS011;4111;50.972;7.072;2022-12-10T14:28:44;41.77;;;26.10;;
8139;SDS011;4111;50.972;7.072;2022-12-10T14:31:16;45.27;;;25.93;;
8139;SDS011;4111;50.972;7.072;2022-12-10T14:33:57;49.40;;;28.27;;
8139;SDS011;4111;50.972;7.072;2022-12-10T14:36:29;44.20;;;27.13;;
8139;SDS011;4111;50.972;7.072;2022-12-10T14:38:58;41.13;;;26.53;;
8139;SDS011;4111;50.972;7.072;2022-12-10T14:41:27;40.40;;;26.93;;
8139;SDS011;4111;50.972;7.072;2022-12-10T14:44:05;37.37;;;25.73;;
8139;SDS011;4111;50.972;7.072;2022-12-10T14:46:32;40.00;;;26.13;;
8139;SDS011;4111;50.972;7.072;2022-12-10T14:48:58;43.67;;;26.67;;
8139;SDS011;4111;50.972;7.072;2022-12-10T14:51:26;39.93;;;24.77;;
8139;SDS011;4111;50.972;7.072;2022-12-10T14:53:59;40.80;;;25.53;;
8139;SDS011;4111;50.972;7.072;2022-12-10T14:56:27;41.80;;;25.83;;
8139;SDS011;4111;50.972;7.072;2022-12-10T15:01:29;41.00;;;26.30;;
8139;SDS011;4111;50.972;7.072;2022-12-10T15:03:59;46.33;;;28.27;;
8139;SDS011;4111;50.972;7.072;2022-12-10T15:06:27;45.33;;;28.93;;
8139;SDS011;4111;50.972;7.072;2022-12-10T15:09:06;37.83;;;24.83;;
8139;SDS011;4111;50.972;7.072;2022-12-10T15:11:40;42.20;;;27.10;;
8139;SDS011;4111;50.972;7.072;2022-12-10T15:14:10;36.07;;;23.50;;
8139;SDS011;4111;50.972;7.072;2022-12-10T15:16:45;42.17;;;25.67;;
8139;SDS011;4111;50.972;7.072;2022-12-10T15:24:44;37.40;;;24.60;;
8139;SDS011;4111;50.972;7.072;2022-12-10T15:27:16;37.23;;;24.87;;
8139;SDS011;4111;50.972;7.072;2022-12-10T15:29:50;37.50;;;23.20;;
8139;SDS011;4111;50.972;7.072;2022-12-10T15:32:24;38.43;;;24.90;;
8139;SDS011;4111;50.972;7.072;2022-12-10T15:34:53;39.30;;;25.20;;
8139;SDS011;4111;50.972;7.072;2022-12-10T15:37:26;37.00;;;25.20;;
8139;SDS011;4111;50.972;7.072;2022-12-10T15:39:58;41.83;;;24.37;;
8139;SDS011;4111;50.972;7.072;2022-12-10T15:42:31;42.90;;;25.47;;
8139;SDS011;4111;50.972;7.072;2022-12-10T15:45:03;38.03;;;24.93;;
8139;SDS011;4111;50.972;7.072;2022-12-10T15:47:53;43.00;;;27.43;;
8139;SDS011;4111;50.972;7.072;2022-12-10T15:50:25;42.13;;;24.57;;
8139;SDS011;4111;50.972;7.072;2022-12-10T15:52:52;48.30;;;25.93;;
8139;SDS011;4111;50.972;7.072;2022-12-10T15:55:19;46.33;;;28.47;;
8139;SDS011;4111;50.972;7.072;2022-12-10T15:57:45;40.40;;;26.40;;
8139;SDS011;4111;50.972;7.072;2022-12-10T16:00:16;40.53;;;26.20;;
8139;SDS011;4111;50.972;7.072;2022-12-10T16:02:58;45.33;;;27.20;;
8139;SDS011;4111;50.972;7.072;2022-12-10T16:05:29;48.73;;;31.07;;
8139;SDS011;4111;50.972;7.072;2022-12-10T16:08:01;45.10;;;27.80;;
8139;SDS011;4111;50.972;7.072;2022-12-10T16:10:30;41.23;;;25.73;;
8139;SDS011;4111;50.972;7.072;2022-12-10T16:13:04;36.67;;;25.20;;
8139;SDS011;4111;50.972;7.072;2022-12-10T16:15:33;38.20;;;24.70;;
8139;SDS011;4111;50.972;7.072;2022-12-10T16:18:07;35.40;;;24.00;;
8139;SDS011;4111;50.972;7.072;2022-12-10T16:20:35;31.63;;;22.97;;
8139;SDS011;4111;50.972;7.072;2022-12-10T16:23:02;34.80;;;24.77;;
8139;SDS011;4111;50.972;7.072;2022-12-10T16:25:29;34.50;;;22.40;;
8139;SDS011;4111;50.972;7.072;2022-12-10T16:27:56;33.73;;;23.17;;
8139;SDS011;4111;50.972;7.072;2022-12-10T16:30:26;34.23;;;22.17;;
8139;SDS011;4111;50.972;7.072;2022-12-10T16:33:01;32.90;;;21.70;;
8139;SDS011;4111;50.972;7.072;2022-12-10T16:35:30;33.97;;;21.90;;
8139;SDS011;4111;50.972;7.072;2022-12-10T16:37:57;34.70;;;21.53;;
8139;SDS011;4111;50.972;7.072;2022-12-10T16:40:25;39.33;;;24.80;;
8139;SDS011;4111;50.972;7.072;2022-12-10T16:42:54;38.00;;;23.60;;
8139;SDS011;4111;50.972;7.072;2022-12-10T16:45:29;33.10;;;22.43;;
8139;SDS011;4111;50.972;7.072;2022-12-10T16:48:03;35.83;;;22.03;;
8139;SDS011;4111;50.972;7.072;2022-12-10T16:50:30;32.60;;;22.23;;
8139;SDS011;4111;50.972;7.072;2022-12-10T16:52:58;31.33;;;22.07;;
8139;SDS011;4111;50.972;7.072;2022-12-10T16:55:29;30.93;;;22.37;;
8139;SDS011;4111;50.972;7.072;2022-12-10T16:57:55;31.57;;;21.83;;
8139;SDS011;4111;50.972;7.072;2022-12-10T17:00:23;31.80;;;21.17;;
8139;SDS011;4111;50.972;7.072;2022-12-10T17:02:51;28.00;;;20.50;;
8139;SDS011;4111;50.972;7.072;2022-12-10T17:07:54;30.67;;;21.60;;